Time;durP1;ratioP1;P1;durP2;ratioP2;P2;SDS_P1;SDS_P2;PMS_P1;PMS_P2;Temp;Humidity;BMP_temperature;BMP_pressure;BME280_temperature;BME280_humidity;BME280_pressure;Samples;Min_cycle;Max_cycle;Signal;HPM_P1;HPM_P2
2021/07/31 00:01:03;;;;;;;4.82;3.50;;;;;;;;;;4978722;28;20097;-49
2021/07/31 00:03:30;;;;;;;6.68;3.40;;;;;;;;;;4979071;28;20153;-52
2021/07/31 00:05:57;;;;;;;5.70;3.42;;;;;;;;;;4990138;28;20428;-51
2021/07/31 00:08:24;;;;;;;5.13;3.40;;;;;;;;;;4984827;28;20050;-48
2021/07/31 00:10:51;;;;;;;5.40;4.18;;;;;;;;;;4991051;28;20125;-52
2021/07/31 00:13:18;;;;;;;6.50;3.35;;;;;;;;;;4991248;28;20042;-50
2021/07/31 00:15:45;;;;;;;5.47;3.88;;;;;;;;;;4991800;28;20502;-51
2021/07/31 00:18:11;;;;;;;4.63;3.85;;;;;;;;;;4976510;28;20122;-53
2021/07/31 00:20:39;;;;;;;5.75;4.15;;;;;;;;;;4986105;28;20043;-49
2021/07/31 00:23:06;;;;;;;6.90;3.63;;;;;;;;;;4989813;28;20077;-49
2021/07/31 00:25:33;;;;;;;6.13;3.60;;;;;;;;;;4988173;28;20089;-52
2021/07/31 00:27:59;;;;;;;5.13;3.67;;;;;;;;;;4990754;28;20465;-50
2021/07/31 00:30:28;;;;;;;5.70;3.75;;;;;;;;;;4986031;28;20047;-50
2021/07/31 00:32:55;;;;;;;4.93;3.88;;;;;;;;;;4972227;28;20073;-49
2021/07/31 00:35:22;;;;;;;5.90;4.28;;;;;;;;;;4989750;28;20108;-48
2021/07/31 00:37:51;;;;;;;5.68;3.90;;;;;;;;;;4982690;28;20047;-49
2021/07/31 00:40:18;;;;;;;5.20;3.95;;;;;;;;;;4971632;28;20055;-50
2021/07/31 00:42:45;;;;;;;5.78;4.00;;;;;;;;;;4987305;28;20149;-50
2021/07/31 00:45:12;;;;;;;6.55;4.25;;;;;;;;;;4987404;28;20043;-49
2021/07/31 00:47:40;;;;;;;6.43;4.18;;;;;;;;;;4972722;28;20046;-50
2021/07/31 00:50:18;;;;;;;5.82;4.07;;;;;;;;;;5066800;28;20407;-48
2021/07/31 00:52:45;;;;;;;6.22;4.40;;;;;;;;;;5051362;28;20119;-52
2021/07/31 00:55:13;;;;;;;7.95;4.45;;;;;;;;;;5032584;28;20045;-51
2021/07/31 00:57:40;;;;;;;5.20;4.20;;;;;;;;;;5039149;28;20053;-49
2021/07/31 01:00:43;;;;;;;5.70;3.95;;;;;;;;;;5057286;28;20406;-48
2021/07/31 01:03:10;;;;;;;6.32;4.35;;;;;;;;;;5026679;28;20052;-48
2021/07/31 01:05:37;;;;;;;5.95;4.10;;;;;;;;;;5048734;28;20065;-48
2021/07/31 01:08:04;;;;;;;6.25;3.90;;;;;;;;;;5064768;28;20052;-49
2021/07/31 01:10:32;;;;;;;5.82;4.20;;;;;;;;;;5059913;28;20036;-52
2021/07/31 01:13:01;;;;;;;5.45;4.07;;;;;;;;;;5052439;28;20041;-44
2021/07/31 01:15:30;;;;;;;4.65;3.70;;;;;;;;;;5058314;28;20033;-44
2021/07/31 01:17:56;;;;;;;5.60;4.05;;;;;;;;;;5058602;28;20042;-51
2021/07/31 01:20:24;;;;;;;5.00;4.00;;;;;;;;;;5056478;28;20116;-50
2021/07/31 01:23:01;;;;;;;6.65;4.43;;;;;;;;;;5032347;28;20045;-46
2021/07/31 01:25:28;;;;;;;5.28;3.85;;;;;;;;;;5050000;28;20064;-47
2021/07/31 01:27:55;;;;;;;6.43;4.03;;;;;;;;;;5050470;28;20049;-47
2021/07/31 01:30:22;;;;;;;5.60;4.15;;;;;;;;;;5052443;28;20399;-47
2021/07/31 01:32:49;;;;;;;5.25;3.75;;;;;;;;;;5060854;28;20098;-51
2021/07/31 01:35:16;;;;;;;6.57;4.50;;;;;;;;;;5066341;28;20395;-51
2021/07/31 01:37:43;;;;;;;5.65;4.38;;;;;;;;;;5046486;28;20038;-50
2021/07/31 01:40:12;;;;;;;5.70;3.83;;;;;;;;;;5052754;28;20051;-51
2021/07/31 01:42:39;;;;;;;6.68;4.18;;;;;;;;;;5048839;28;20194;-50
2021/07/31 01:45:06;;;;;;;7.10;4.22;;;;;;;;;;5047280;28;20041;-50
2021/07/31 01:47:35;;;;;;;5.97;3.95;;;;;;;;;;5055452;28;20048;-51
2021/07/31 01:50:04;;;;;;;5.68;4.03;;;;;;;;;;5061251;28;20095;-49
2021/07/31 01:52:39;;;;;;;6.90;4.13;;;;;;;;;;5061301;28;20037;-51
2021/07/31 01:55:06;;;;;;;6.18;4.03;;;;;;;;;;5055776;28;20099;-51
2021/07/31 01:57:34;;;;;;;5.15;3.95;;;;;;;;;;5056294;28;20045;-52
2021/07/31 02:00:17;;;;;;;5.23;3.70;;;;;;;;;;5040276;28;20045;-53
2021/07/31 02:03:02;;;;;;;5.10;3.72;;;;;;;;;;5032690;28;20046;-50
2021/07/31 02:05:34;;;;;;;7.35;4.60;;;;;;;;;;5052342;28;20243;-52
2021/07/31 02:08:01;;;;;;;4.88;3.60;;;;;;;;;;5042770;28;20340;-53
2021/07/31 02:10:36;;;;;;;5.97;3.90;;;;;;;;;;5045042;28;20049;-51
2021/07/31 02:13:05;;;;;;;6.47;4.53;;;;;;;;;;5049131;28;20040;-52
2021/07/31 02:15:33;;;;;;;6.15;4.20;;;;;;;;;;5033370;28;20498;-50
2021/07/31 02:18:04;;;;;;;6.30;4.30;;;;;;;;;;5041598;28;20044;-50
2021/07/31 02:20:31;;;;;;;5.47;4.00;;;;;;;;;;5047652;28;20562;-49
2021/07/31 02:23:08;;;;;;;5.88;3.92;;;;;;;;;;5037000;28;20037;-49
2021/07/31 02:25:47;;;;;;;8.50;4.13;;;;;;;;;;5036644;28;20107;-53
2021/07/31 02:28:32;;;;;;;6.22;4.63;;;;;;;;;;5044295;28;20052;-52
2021/07/31 02:30:59;;;;;;;6.70;4.00;;;;;;;;;;5031490;28;20064;-50
2021/07/31 02:33:26;;;;;;;4.88;3.75;;;;;;;;;;5051899;28;20037;-50
2021/07/31 02:36:02;;;;;;;4.47;3.53;;;;;;;;;;5052645;28;20033;-51
2021/07/31 02:38:44;;;;;;;6.10;4.20;;;;;;;;;;5030844;28;20052;-55
2021/07/31 02:41:11;;;;;;;5.20;3.85;;;;;;;;;;5036120;28;20076;-49
2021/07/31 02:43:38;;;;;;;6.35;4.28;;;;;;;;;;5033271;28;20120;-51
2021/07/31 02:46:06;;;;;;;5.38;3.70;;;;;;;;;;5031768;28;20080;-51
2021/07/31 02:48:34;;;;;;;6.30;4.68;;;;;;;;;;5042715;28;20045;-51
2021/07/31 02:51:05;;;;;;;5.43;4.05;;;;;;;;;;5032767;28;20053;-53
2021/07/31 02:53:50;;;;;;;5.30;4.20;;;;;;;;;;5032150;28;20056;-54
2021/07/31 02:56:17;;;;;;;5.00;3.92;;;;;;;;;;5034720;28;20123;-52
2021/07/31 02:58:44;;;;;;;8.82;4.13;;;;;;;;;;5041286;28;20443;-53
2021/07/31 03:01:11;;;;;;;5.22;4.03;;;;;;;;;;5046521;28;20064;-53
2021/07/31 03:03:38;;;;;;;5.22;4.00;;;;;;;;;;5032543;28;20133;-54
2021/07/31 03:06:07;;;;;;;5.13;4.15;;;;;;;;;;5033711;28;20053;-53
2021/07/31 03:08:36;;;;;;;7.13;4.47;;;;;;;;;;5036715;28;20069;-50
2021/07/31 03:11:06;;;;;;;5.97;3.97;;;;;;;;;;5015900;28;20045;-51
2021/07/31 03:13:34;;;;;;;6.30;3.67;;;;;;;;;;5039065;28;20036;-49
2021/07/31 03:16:01;;;;;;;5.65;3.70;;;;;;;;;;5047062;28;20076;-49
2021/07/31 03:18:29;;;;;;;5.88;4.13;;;;;;;;;;5046196;28;20048;-50
2021/07/31 03:20:56;;;;;;;5.07;4.50;;;;;;;;;;5033124;28;20603;-49
2021/07/31 03:23:35;;;;;;;5.18;3.92;;;;;;;;;;5038149;28;20037;-51
2021/07/31 03:26:02;;;;;;;6.90;4.03;;;;;;;;;;5030064;28;20080;-50
2021/07/31 03:28:29;;;;;;;4.85;4.05;;;;;;;;;;5038981;28;20049;-53
2021/07/31 03:31:00;;;;;;;4.85;3.80;;;;;;;;;;5038948;28;20044;-52
2021/07/31 03:33:28;;;;;;;6.38;4.22;;;;;;;;;;5030231;28;20046;-52
2021/07/31 03:35:56;;;;;;;10.20;5.63;;;;;;;;;;5030609;28;20037;-50
2021/07/31 03:38:37;;;;;;;8.30;3.90;;;;;;;;;;5031787;28;20061;-51
2021/07/31 03:41:04;;;;;;;5.57;4.50;;;;;;;;;;5032769;28;20049;-50
2021/07/31 03:43:36;;;;;;;4.97;3.83;;;;;;;;;;5050322;28;20119;-53
2021/07/31 03:46:09;;;;;;;5.70;4.03;;;;;;;;;;5031499;28;20362;-48
2021/07/31 03:48:37;;;;;;;6.05;3.90;;;;;;;;;;5049562;28;20041;-51
2021/07/31 03:51:04;;;;;;;6.43;4.20;;;;;;;;;;5048014;28;20037;-52
2021/07/31 03:53:37;;;;;;;5.05;3.95;;;;;;;;;;5029203;28;20094;-49
2021/07/31 03:56:04;;;;;;;5.90;3.97;;;;;;;;;;5030712;28;20037;-51
2021/07/31 03:58:34;;;;;;;5.20;4.15;;;;;;;;;;5049733;28;20045;-47
2021/07/31 04:01:01;;;;;;;4.82;4.20;;;;;;;;;;5045763;28;20051;-49
2021/07/31 04:03:28;;;;;;;7.00;4.47;;;;;;;;;;5048987;28;20406;-50
2021/07/31 04:05:58;;;;;;;6.40;4.70;;;;;;;;;;5047890;28;20049;-48
2021/07/31 04:08:43;;;;;;;5.05;4.25;;;;;;;;;;5030205;28;20041;-48
2021/07/31 04:11:13;;;;;;;5.93;4.25;;;;;;;;;;5032557;28;20048;-51
2021/07/31 04:14:09;;;;;;;5.38;4.07;;;;;;;;;;5037924;28;20045;-51
2021/07/31 04:16:41;;;;;;;5.20;4.03;;;;;;;;;;5029806;28;20042;-50
2021/07/31 04:19:08;;;;;;;5.47;4.40;;;;;;;;;;5012702;28;20129;-49
2021/07/31 04:21:38;;;;;;;5.88;4.50;;;;;;;;;;5030534;28;20607;-48
2021/07/31 04:24:07;;;;;;;7.03;4.90;;;;;;;;;;5028938;28;20079;-49
2021/07/31 04:26:34;;;;;;;5.50;4.55;;;;;;;;;;5031167;28;20148;-50
2021/07/31 04:29:01;;;;;;;7.03;4.80;;;;;;;;;;5041067;28;20128;-47
2021/07/31 04:31:28;;;;;;;5.88;4.07;;;;;;;;;;5029155;28;20045;-52
2021/07/31 04:33:55;;;;;;;5.85;4.43;;;;;;;;;;5031936;28;20037;-49
2021/07/31 04:36:21;;;;;;;6.22;4.32;;;;;;;;;;5027579;28;20364;-49
2021/07/31 04:38:48;;;;;;;5.20;4.25;;;;;;;;;;5031838;28;20061;-47
2021/07/31 04:41:15;;;;;;;5.93;3.97;;;;;;;;;;5037321;28;20045;-47
2021/07/31 04:43:41;;;;;;;7.88;4.20;;;;;;;;;;5050791;28;20048;-50
2021/07/31 04:46:08;;;;;;;5.32;4.10;;;;;;;;;;5033929;28;20490;-46
2021/07/31 04:48:36;;;;;;;6.38;4.40;;;;;;;;;;5034340;28;20069;-46
2021/07/31 04:51:03;;;;;;;5.28;4.43;;;;;;;;;;5041667;28;20037;-47
2021/07/31 04:53:31;;;;;;;7.72;4.32;;;;;;;;;;5049489;28;20490;-48
2021/07/31 04:56:00;;;;;;;7.18;4.07;;;;;;;;;;5034846;28;20094;-47
2021/07/31 04:58:26;;;;;;;6.38;4.25;;;;;;;;;;5028544;28;20065;-47
2021/07/31 05:00:59;;;;;;;7.18;4.32;;;;;;;;;;5042353;28;20091;-46
2021/07/31 05:03:29;;;;;;;9.07;4.53;;;;;;;;;;5030907;28;20593;-47
2021/07/31 05:05:56;;;;;;;8.10;4.60;;;;;;;;;;5039411;28;20033;-46
2021/07/31 05:08:24;;;;;;;5.25;3.80;;;;;;;;;;5033826;28;20133;-51
2021/07/31 05:10:52;;;;;;;8.60;5.00;;;;;;;;;;5036995;28;20048;-50
2021/07/31 05:13:19;;;;;;;5.60;4.38;;;;;;;;;;5041338;28;20073;-51
2021/07/31 05:15:47;;;;;;;6.40;4.10;;;;;;;;;;5034097;28;20064;-47
2021/07/31 05:18:14;;;;;;;5.70;4.43;;;;;;;;;;5029764;28;20368;-48
2021/07/31 05:20:45;;;;;;;8.32;4.30;;;;;;;;;;5036777;28;20084;-49
2021/07/31 05:23:12;;;;;;;7.65;4.70;;;;;;;;;;5037377;28;20057;-49
2021/07/31 05:25:43;;;;;;;5.88;4.20;;;;;;;;;;5032160;28;20444;-46
2021/07/31 05:28:11;;;;;;;4.68;4.00;;;;;;;;;;5031829;28;20041;-47
2021/07/31 05:30:38;;;;;;;7.38;4.50;;;;;;;;;;5035913;28;20495;-49
2021/07/31 05:33:05;;;;;;;5.05;4.13;;;;;;;;;;5037114;28;20044;-48
2021/07/31 05:35:32;;;;;;;5.93;3.72;;;;;;;;;;5035275;28;20044;-49
2021/07/31 05:38:00;;;;;;;7.45;4.15;;;;;;;;;;5042282;28;20140;-52
2021/07/31 05:40:26;;;;;;;5.13;4.22;;;;;;;;;;5037959;28;20040;-47
2021/07/31 05:42:53;;;;;;;5.40;4.22;;;;;;;;;;5047397;28;20072;-50
2021/07/31 05:45:20;;;;;;;7.43;4.30;;;;;;;;;;5039785;28;20388;-48
2021/07/31 05:47:51;;;;;;;6.32;4.20;;;;;;;;;;5033848;28;20401;-47
2021/07/31 05:50:17;;;;;;;5.80;4.28;;;;;;;;;;5034359;28;20522;-47
2021/07/31 05:52:44;;;;;;;4.75;4.22;;;;;;;;;;5033297;28;20040;-50
2021/07/31 05:55:11;;;;;;;5.82;3.72;;;;;;;;;;5033291;28;20137;-50
2021/07/31 05:57:38;;;;;;;8.35;4.55;;;;;;;;;;5052968;28;20124;-48
2021/07/31 06:00:05;;;;;;;6.03;4.25;;;;;;;;;;5044129;28;20065;-46
2021/07/31 06:02:39;;;;;;;8.07;4.20;;;;;;;;;;5036128;28;20450;-51
2021/07/31 06:05:08;;;;;;;12.73;4.03;;;;;;;;;;5052901;28;20387;-48
2021/07/31 06:07:34;;;;;;;6.03;4.47;;;;;;;;;;5047940;28;20057;-51
2021/07/31 06:10:02;;;;;;;6.47;4.32;;;;;;;;;;5032406;28;20049;-50
2021/07/31 06:12:29;;;;;;;6.65;4.63;;;;;;;;;;5052263;28;20040;-52
2021/07/31 06:14:56;;;;;;;5.75;4.35;;;;;;;;;;5049736;28;20459;-49
2021/07/31 06:17:22;;;;;;;5.13;4.13;;;;;;;;;;5035087;28;20038;-49
2021/07/31 06:19:49;;;;;;;4.63;3.90;;;;;;;;;;5032531;28;20053;-52
2021/07/31 06:22:16;;;;;;;5.43;4.20;;;;;;;;;;5037562;28;20473;-48
2021/07/31 06:24:42;;;;;;;4.88;4.00;;;;;;;;;;5043097;28;20151;-48
2021/07/31 06:27:10;;;;;;;5.13;3.90;;;;;;;;;;5047207;28;20051;-52
2021/07/31 06:29:37;;;;;;;4.82;4.10;;;;;;;;;;5033541;28;20507;-52
2021/07/31 06:32:04;;;;;;;5.90;4.30;;;;;;;;;;5039322;28;20444;-53
2021/07/31 06:34:31;;;;;;;6.68;4.55;;;;;;;;;;5052411;28;20124;-48
2021/07/31 06:36:58;;;;;;;5.50;4.32;;;;;;;;;;5046245;28;20132;-51
2021/07/31 06:39:25;;;;;;;6.55;4.18;;;;;;;;;;5032489;28;20175;-49
2021/07/31 06:41:53;;;;;;;6.68;4.22;;;;;;;;;;5045655;28;20486;-49
2021/07/31 06:44:20;;;;;;;7.18;4.28;;;;;;;;;;5041349;28;20084;-50
2021/07/31 06:46:46;;;;;;;5.30;3.97;;;;;;;;;;5037118;28;20523;-48
2021/07/31 06:49:13;;;;;;;5.60;4.43;;;;;;;;;;5049011;28;20041;-51
2021/07/31 06:51:40;;;;;;;6.55;4.13;;;;;;;;;;5049387;28;20060;-48
2021/07/31 06:54:07;;;;;;;5.45;4.13;;;;;;;;;;5050642;28;20084;-47
2021/07/31 06:56:35;;;;;;;6.63;4.28;;;;;;;;;;5041396;28;20128;-47
2021/07/31 06:59:02;;;;;;;7.20;4.00;;;;;;;;;;5039506;28;20041;-49
2021/07/31 07:01:29;;;;;;;8.70;4.28;;;;;;;;;;5032112;28;20049;-46
2021/07/31 07:03:57;;;;;;;7.70;4.00;;;;;;;;;;5042322;28;20045;-52
2021/07/31 07:06:24;;;;;;;6.63;4.22;;;;;;;;;;5042131;28;20355;-49
2021/07/31 07:08:50;;;;;;;5.85;4.22;;;;;;;;;;5049027;28;20149;-47
2021/07/31 07:11:18;;;;;;;6.97;4.00;;;;;;;;;;5041572;28;20045;-51
2021/07/31 07:13:45;;;;;;;6.88;4.20;;;;;;;;;;5045244;28;20088;-52
2021/07/31 07:16:12;;;;;;;8.00;4.20;;;;;;;;;;5043052;28;20490;-49
2021/07/31 07:18:39;;;;;;;5.93;3.97;;;;;;;;;;5038209;28;20041;-51
2021/07/31 07:21:06;;;;;;;5.82;4.05;;;;;;;;;;5051626;28;20107;-48
2021/07/31 07:23:33;;;;;;;7.95;4.68;;;;;;;;;;5037836;28;20631;-50
2021/07/31 07:26:00;;;;;;;7.63;4.22;;;;;;;;;;5038817;28;20052;-47
2021/07/31 07:28:27;;;;;;;6.90;4.95;;;;;;;;;;5035749;28;20069;-47
2021/07/31 07:30:54;;;;;;;6.75;4.15;;;;;;;;;;5049695;28;20033;-48
2021/07/31 07:33:21;;;;;;;6.60;4.50;;;;;;;;;;5037281;28;20124;-48
2021/07/31 07:35:47;;;;;;;5.53;4.57;;;;;;;;;;5039295;28;20041;-49
2021/07/31 07:38:14;;;;;;;5.80;4.70;;;;;;;;;;5046280;28;20931;-51
2021/07/31 07:40:41;;;;;;;5.57;4.22;;;;;;;;;;5035286;28;20037;-51
2021/07/31 07:43:08;;;;;;;6.55;4.32;;;;;;;;;;5033203;28;20107;-50
2021/07/31 07:45:34;;;;;;;7.28;5.00;;;;;;;;;;5045662;28;20052;-50
2021/07/31 07:48:01;;;;;;;7.25;4.50;;;;;;;;;;5034921;28;20045;-51
2021/07/31 07:50:28;;;;;;;5.30;4.38;;;;;;;;;;5036333;28;20153;-47
2021/07/31 07:52:55;;;;;;;7.65;4.53;;;;;;;;;;5031548;28;20065;-49
2021/07/31 07:55:22;;;;;;;6.55;4.25;;;;;;;;;;5038687;28;20045;-49
2021/07/31 07:57:48;;;;;;;5.72;4.45;;;;;;;;;;5044526;28;20090;-48
2021/07/31 08:00:15;;;;;;;4.88;4.03;;;;;;;;;;5041919;28;20124;-49
2021/07/31 08:02:42;;;;;;;5.85;4.03;;;;;;;;;;5047735;28;20071;-50
2021/07/31 08:05:12;;;;;;;5.82;4.03;;;;;;;;;;5051045;28;20053;-50
2021/07/31 08:07:41;;;;;;;7.35;4.60;;;;;;;;;;5031200;28;20065;-51
2021/07/31 08:10:09;;;;;;;5.90;4.32;;;;;;;;;;5037435;28;20128;-48
2021/07/31 08:12:36;;;;;;;5.50;4.28;;;;;;;;;;5032402;28;20414;-51
2021/07/31 08:15:03;;;;;;;5.00;4.13;;;;;;;;;;5030510;28;20068;-49
2021/07/31 08:17:29;;;;;;;5.72;4.30;;;;;;;;;;5043790;28;20065;-49
2021/07/31 08:19:56;;;;;;;4.45;3.80;;;;;;;;;;5035361;28;20041;-48
2021/07/31 08:22:23;;;;;;;4.78;3.67;;;;;;;;;;5044348;28;20498;-50
2021/07/31 08:24:50;;;;;;;7.20;4.10;;;;;;;;;;5037317;28;20106;-51
2021/07/31 08:27:17;;;;;;;6.45;4.18;;;;;;;;;;5039627;28;20482;-51
2021/07/31 08:29:44;;;;;;;5.78;4.38;;;;;;;;;;5047217;28;20448;-49
2021/07/31 08:32:10;;;;;;;6.05;4.00;;;;;;;;;;5035027;28;20048;-49
2021/07/31 08:34:37;;;;;;;5.55;3.33;;;;;;;;;;5050784;28;20037;-50
2021/07/31 08:37:04;;;;;;;4.97;3.80;;;;;;;;;;5053494;28;20684;-49
2021/07/31 08:39:31;;;;;;;7.38;3.60;;;;;;;;;;5062427;28;20040;-50
2021/07/31 08:41:58;;;;;;;7.07;3.55;;;;;;;;;;5062734;28;20119;-48
2021/07/31 08:44:25;;;;;;;4.40;3.22;;;;;;;;;;5051465;28;20128;-49
2021/07/31 08:46:52;;;;;;;5.10;3.40;;;;;;;;;;5050802;28;20072;-48
2021/07/31 08:49:20;;;;;;;5.55;3.75;;;;;;;;;;5057685;28;20115;-53
2021/07/31 08:51:47;;;;;;;5.00;3.30;;;;;;;;;;5058439;28;20586;-52
2021/07/31 08:54:13;;;;;;;4.32;3.22;;;;;;;;;;5052127;28;20065;-52
2021/07/31 08:56:42;;;;;;;8.55;3.70;;;;;;;;;;5051244;28;20044;-51
2021/07/31 08:59:09;;;;;;;4.53;3.67;;;;;;;;;;5046186;28;20235;-51
2021/07/31 09:01:36;;;;;;;3.85;2.97;;;;;;;;;;5044883;28;20045;-50
2021/07/31 09:04:16;;;;;;;4.90;3.30;;;;;;;;;;5049992;28;20116;-51
2021/07/31 09:06:44;;;;;;;5.40;3.30;;;;;;;;;;5030620;28;20053;-49
2021/07/31 09:09:11;;;;;;;5.47;3.42;;;;;;;;;;5029621;28;20399;-48
2021/07/31 09:11:59;;;;;;;6.65;4.15;;;;;;;;;;5040825;28;20041;-48
2021/07/31 09:14:36;;;;;;;7.47;4.40;;;;;;;;;;5048029;28;20115;-53
2021/07/31 09:17:04;;;;;;;5.65;4.32;;;;;;;;;;5034631;28;20523;-53
2021/07/31 09:19:31;;;;;;;6.65;4.57;;;;;;;;;;5033290;28;20053;-55
2021/07/31 09:22:03;;;;;;;7.80;4.30;;;;;;;;;;5043214;28;20523;-54
2021/07/31 09:24:29;;;;;;;9.05;4.53;;;;;;;;;;5034364;28;20069;-55
2021/07/31 09:26:56;;;;;;;5.70;4.50;;;;;;;;;;5044808;28;20072;-56
2021/07/31 09:29:29;;;;;;;6.15;4.38;;;;;;;;;;5044670;28;20144;-55
2021/07/31 09:32:01;;;;;;;5.47;4.53;;;;;;;;;;5033852;28;20471;-55
2021/07/31 09:34:31;;;;;;;4.78;3.50;;;;;;;;;;5046001;28;20040;-52
2021/07/31 09:37:08;;;;;;;6.00;4.10;;;;;;;;;;5042302;28;20103;-55
2021/07/31 09:39:53;;;;;;;6.28;4.40;;;;;;;;;;5045182;28;20051;-55
2021/07/31 09:42:24;;;;;;;5.68;4.85;;;;;;;;;;5053911;28;20049;-53
2021/07/31 09:44:51;;;;;;;7.05;4.68;;;;;;;;;;5038478;28;20080;-52
2021/07/31 09:47:18;;;;;;;5.40;4.35;;;;;;;;;;5033960;28;20514;-53
2021/07/31 09:49:46;;;;;;;4.80;3.85;;;;;;;;;;5046795;28;20374;-52
2021/07/31 09:52:17;;;;;;;5.00;3.70;;;;;;;;;;5052625;28;20037;-52
2021/07/31 09:54:44;;;;;;;6.82;3.80;;;;;;;;;;5044944;28;20128;-53
2021/07/31 09:57:11;;;;;;;5.65;4.32;;;;;;;;;;5053933;28;20482;-51
2021/07/31 09:59:42;;;;;;;6.05;4.20;;;;;;;;;;5041613;28;20047;-51
2021/07/31 10:02:13;;;;;;;6.05;4.30;;;;;;;;;;5033816;28;20516;-54
2021/07/31 10:04:40;;;;;;;6.57;4.13;;;;;;;;;;5034857;28;20515;-53
2021/07/31 10:07:07;;;;;;;5.13;3.95;;;;;;;;;;5033883;28;20056;-54
2021/07/31 10:09:34;;;;;;;6.40;3.80;;;;;;;;;;5044297;28;20481;-51
2021/07/31 10:12:02;;;;;;;7.55;4.30;;;;;;;;;;5053322;28;20115;-54
2021/07/31 10:14:30;;;;;;;6.47;4.13;;;;;;;;;;5042770;28;20057;-52
2021/07/31 10:16:57;;;;;;;6.25;3.88;;;;;;;;;;5033335;28;20037;-53
2021/07/31 10:19:23;;;;;;;5.80;3.85;;;;;;;;;;5040795;28;20056;-54
2021/07/31 10:21:52;;;;;;;4.72;3.75;;;;;;;;;;5052912;28;20128;-54
2021/07/31 10:24:19;;;;;;;5.80;4.00;;;;;;;;;;5044697;28;20050;-54
2021/07/31 10:27:05;;;;;;;5.35;4.20;;;;;;;;;;5033310;28;20132;-54
2021/07/31 10:29:34;;;;;;;6.63;4.10;;;;;;;;;;5041503;28;20499;-54
2021/07/31 10:32:20;;;;;;;5.07;4.00;;;;;;;;;;5053384;28;20095;-50
2021/07/31 10:34:46;;;;;;;4.90;3.97;;;;;;;;;;5033513;28;20136;-51
2021/07/31 10:37:32;;;;;;;5.03;3.40;;;;;;;;;;5032848;28;20077;-54
2021/07/31 10:40:01;;;;;;;4.97;3.90;;;;;;;;;;5033596;28;20038;-53
2021/07/31 10:42:46;;;;;;;6.53;3.88;;;;;;;;;;5049620;28;20494;-54
2021/07/31 10:45:16;;;;;;;5.43;4.10;;;;;;;;;;5047075;28;20165;-53
2021/07/31 10:47:46;;;;;;;5.05;3.78;;;;;;;;;;5032843;28;20052;-52
2021/07/31 10:50:22;;;;;;;6.18;4.22;;;;;;;;;;5042294;28;20069;-53
2021/07/31 10:52:48;;;;;;;5.70;3.80;;;;;;;;;;5046053;28;20033;-52
2021/07/31 10:55:15;;;;;;;6.68;3.72;;;;;;;;;;5042596;28;20051;-54
2021/07/31 10:57:54;;;;;;;5.97;4.13;;;;;;;;;;5052911;28;20076;-53
2021/07/31 11:00:24;;;;;;;7.38;3.90;;;;;;;;;;5041256;28;20503;-53
2021/07/31 11:03:03;;;;;;;5.65;3.72;;;;;;;;;;5032585;28;20069;-52
2021/07/31 11:06:06;;;;;;;6.88;4.18;;;;;;;;;;5032817;28;20111;-53
2021/07/31 11:08:45;;;;;;;5.68;3.35;;;;;;;;;;5029857;28;20466;-52
2021/07/31 11:11:15;;;;;;;7.22;3.78;;;;;;;;;;5048631;28;20049;-54
2021/07/31 11:13:43;;;;;;;5.10;3.92;;;;;;;;;;5052803;28;20060;-55
2021/07/31 11:16:13;;;;;;;5.15;3.80;;;;;;;;;;5035723;28;20041;-54
2021/07/31 11:18:44;;;;;;;5.25;3.33;;;;;;;;;;5032103;28;20037;-52
2021/07/31 11:21:12;;;;;;;5.90;3.25;;;;;;;;;;5048862;28;20083;-54
2021/07/31 11:23:40;;;;;;;5.30;3.33;;;;;;;;;;5052529;28;20481;-51
2021/07/31 11:26:07;;;;;;;5.53;3.53;;;;;;;;;;5035544;28;20111;-52
2021/07/31 11:28:36;;;;;;;6.70;3.90;;;;;;;;;;5038209;28;20071;-51
2021/07/31 11:31:16;;;;;;;5.43;3.55;;;;;;;;;;5046336;28;20041;-52
2021/07/31 11:33:55;;;;;;;4.05;3.00;;;;;;;;;;5032303;28;20087;-53
2021/07/31 11:36:21;;;;;;;4.38;3.20;;;;;;;;;;5032129;28;20139;-52
2021/07/31 11:38:52;;;;;;;4.30;2.97;;;;;;;;;;5036894;28;20144;-55
2021/07/31 11:41:20;;;;;;;6.32;3.42;;;;;;;;;;5033411;28;20052;-52
2021/07/31 11:43:54;;;;;;;6.13;3.35;;;;;;;;;;5039937;28;20041;-49
2021/07/31 11:46:31;;;;;;;6.57;3.70;;;;;;;;;;5052174;28;20041;-49
2021/07/31 11:49:03;;;;;;;4.88;3.40;;;;;;;;;;5036845;28;20080;-52
2021/07/31 11:51:42;;;;;;;4.45;3.17;;;;;;;;;;5047633;28;20037;-51
2021/07/31 11:54:10;;;;;;;4.32;3.30;;;;;;;;;;5052168;28;20418;-52
2021/07/31 11:56:38;;;;;;;8.02;3.90;;;;;;;;;;5034782;28;20125;-53
2021/07/31 11:59:05;;;;;;;6.68;3.10;;;;;;;;;;5030714;28;20450;-54
2021/07/31 12:01:33;;;;;;;6.30;3.35;;;;;;;;;;5032935;28;20068;-52
2021/07/31 12:04:01;;;;;;;6.32;3.28;;;;;;;;;;5032167;28;20045;-54
2021/07/31 12:06:31;;;;;;;4.05;2.97;;;;;;;;;;5032026;28;20052;-55
2021/07/31 12:09:01;;;;;;;6.65;3.13;;;;;;;;;;5030627;28;20071;-54
2021/07/31 12:11:34;;;;;;;6.70;3.00;;;;;;;;;;5031596;28;20129;-54
2021/07/31 12:14:21;;;;;;;5.57;3.05;;;;;;;;;;5032137;28;20096;-54
2021/07/31 12:16:48;;;;;;;4.38;2.92;;;;;;;;;;5031099;28;20382;-51
2021/07/31 12:19:15;;;;;;;4.88;3.05;;;;;;;;;;5031642;28;20042;-52
2021/07/31 12:21:42;;;;;;;5.45;2.97;;;;;;;;;;5030262;28;20411;-54
2021/07/31 12:24:18;;;;;;;4.60;3.10;;;;;;;;;;5042324;28;20485;-54
2021/07/31 12:26:52;;;;;;;4.05;2.90;;;;;;;;;;5041704;28;20057;-59
2021/07/31 12:29:38;;;;;;;4.00;2.83;;;;;;;;;;5041690;28;20060;-53
2021/07/31 12:32:20;;;;;;;4.32;3.20;;;;;;;;;;5039824;28;20041;-54
2021/07/31 12:34:47;;;;;;;4.03;3.13;;;;;;;;;;5031160;28;20099;-52
2021/07/31 12:37:14;;;;;;;5.78;2.90;;;;;;;;;;5031232;28;20814;-55
2021/07/31 12:39:40;;;;;;;5.68;2.92;;;;;;;;;;5030699;28;20041;-54
2021/07/31 12:42:09;;;;;;;4.00;2.80;;;;;;;;;;5042322;28;20079;-54
2021/07/31 12:44:38;;;;;;;6.90;2.92;;;;;;;;;;5044011;28;20088;-49
2021/07/31 12:47:05;;;;;;;5.05;2.70;;;;;;;;;;5041119;28;20123;-52
2021/07/31 12:49:33;;;;;;;4.00;2.78;;;;;;;;;;5037881;28;20132;-54
2021/07/31 12:52:01;;;;;;;6.28;3.40;;;;;;;;;;5040723;28;20160;-53
2021/07/31 12:54:28;;;;;;;4.82;3.05;;;;;;;;;;5051050;28;20487;-55
2021/07/31 12:56:55;;;;;;;4.40;2.65;;;;;;;;;;5047110;28;20063;-51
2021/07/31 12:59:22;;;;;;;3.83;3.10;;;;;;;;;;5048081;28;20076;-52
2021/07/31 13:02:07;;;;;;;4.22;2.95;;;;;;;;;;5041360;28;20371;-51
2021/07/31 13:04:34;;;;;;;5.47;2.78;;;;;;;;;;5050716;28;20053;-52
2021/07/31 13:07:01;;;;;;;4.03;2.88;;;;;;;;;;5040833;28;20045;-53
2021/07/31 13:09:28;;;;;;;5.20;3.38;;;;;;;;;;5030221;28;20041;-54
2021/07/31 13:11:55;;;;;;;5.03;3.13;;;;;;;;;;5038963;28;20068;-55
2021/07/31 13:14:26;;;;;;;3.58;2.53;;;;;;;;;;5046229;28;20038;-54
2021/07/31 13:16:53;;;;;;;4.75;2.90;;;;;;;;;;5038360;28;20416;-53
2021/07/31 13:19:20;;;;;;;4.55;2.58;;;;;;;;;;5029040;28;20041;-52
2021/07/31 13:21:46;;;;;;;6.40;2.90;;;;;;;;;;5030504;28;20046;-49
2021/07/31 13:24:13;;;;;;;6.45;3.00;;;;;;;;;;5030222;28;20072;-53
2021/07/31 13:26:40;;;;;;;4.63;3.10;;;;;;;;;;5048344;28;20071;-52
2021/07/31 13:29:07;;;;;;;3.58;2.70;;;;;;;;;;5038416;28;20101;-52
2021/07/31 13:31:35;;;;;;;5.55;2.85;;;;;;;;;;5049402;28;20128;-54
2021/07/31 13:34:02;;;;;;;3.80;3.10;;;;;;;;;;5030490;28;20037;-50
2021/07/31 13:36:29;;;;;;;7.13;3.00;;;;;;;;;;5046326;28;20107;-52
2021/07/31 13:39:01;;;;;;;4.25;2.95;;;;;;;;;;5042325;28;20151;-53
2021/07/31 13:41:31;;;;;;;4.88;2.80;;;;;;;;;;5035318;28;20514;-52
2021/07/31 13:43:59;;;;;;;4.00;3.10;;;;;;;;;;5031482;28;20041;-53
2021/07/31 13:46:26;;;;;;;4.07;3.13;;;;;;;;;;5042436;28;20551;-54
2021/07/31 13:48:53;;;;;;;5.40;3.00;;;;;;;;;;5039393;28;20045;-52
2021/07/31 13:51:20;;;;;;;4.20;3.03;;;;;;;;;;5037802;28;20112;-49
2021/07/31 13:53:47;;;;;;;4.32;3.00;;;;;;;;;;5029837;28;20034;-54
2021/07/31 13:56:13;;;;;;;4.22;2.97;;;;;;;;;;5030623;28;20124;-54
2021/07/31 13:58:40;;;;;;;5.40;2.75;;;;;;;;;;5033008;28;20123;-53
2021/07/31 14:01:07;;;;;;;4.60;3.80;;;;;;;;;;5033535;28;20047;-53
2021/07/31 14:03:35;;;;;;;4.93;2.90;;;;;;;;;;5034178;28;20041;-53
2021/07/31 14:06:02;;;;;;;3.72;2.80;;;;;;;;;;5034174;28;20076;-54
2021/07/31 14:08:28;;;;;;;3.95;2.67;;;;;;;;;;5035406;28;20106;-53
2021/07/31 14:10:55;;;;;;;4.55;2.95;;;;;;;;;;5053570;28;20075;-54
2021/07/31 14:13:22;;;;;;;5.90;3.03;;;;;;;;;;5048089;28;20038;-53
2021/07/31 14:15:49;;;;;;;3.85;2.53;;;;;;;;;;5032450;28;20602;-55
2021/07/31 14:18:15;;;;;;;4.32;3.20;;;;;;;;;;5032474;28;20068;-54
2021/07/31 14:20:42;;;;;;;3.58;2.80;;;;;;;;;;5048926;28;20068;-52
2021/07/31 14:23:12;;;;;;;5.88;2.65;;;;;;;;;;5033353;28;20041;-52
2021/07/31 14:25:39;;;;;;;4.85;2.92;;;;;;;;;;5033419;28;20388;-53
2021/07/31 14:28:06;;;;;;;3.92;2.80;;;;;;;;;;5034600;28;20037;-52
2021/07/31 14:30:33;;;;;;;3.75;2.75;;;;;;;;;;5040517;28;20132;-53
2021/07/31 14:33:00;;;;;;;4.85;2.90;;;;;;;;;;5033485;28;20045;-53
2021/07/31 14:35:27;;;;;;;5.07;2.60;;;;;;;;;;5033333;28;20084;-51
2021/07/31 14:37:55;;;;;;;8.50;3.20;;;;;;;;;;5032937;28;20533;-53
2021/07/31 14:40:22;;;;;;;4.68;2.95;;;;;;;;;;5039022;28;20136;-55
2021/07/31 14:42:49;;;;;;;4.30;2.75;;;;;;;;;;5052827;28;20047;-52
2021/07/31 14:45:16;;;;;;;4.88;2.90;;;;;;;;;;5035246;28;20045;-53
2021/07/31 14:47:43;;;;;;;5.50;3.20;;;;;;;;;;5032905;28;20069;-55
2021/07/31 14:50:10;;;;;;;4.80;2.97;;;;;;;;;;5042794;28;20044;-54
2021/07/31 14:52:36;;;;;;;4.15;2.67;;;;;;;;;;5043795;28;20506;-53
2021/07/31 14:55:05;;;;;;;5.72;2.97;;;;;;;;;;5037197;28;20041;-55